createdAt,value
2022-08-26T00:01:38.789Z,16.63
2022-08-26T00:04:40.866Z,15.45
2022-08-26T00:07:43.375Z,12.88
2022-08-26T00:10:45.645Z,15.77
2022-08-26T00:13:49.482Z,12.50
2022-08-26T00:16:51.381Z,16.30
2022-08-26T00:19:52.988Z,13.10
2022-08-26T00:22:55.040Z,14.07
2022-08-26T00:25:57.368Z,19.48
2022-08-26T00:28:58.952Z,14.00
2022-08-26T00:32:02.729Z,14.05
2022-08-26T00:35:07.385Z,10.60
2022-08-26T00:38:10.049Z,13.35
2022-08-26T00:41:12.565Z,17.33
2022-08-26T00:44:14.439Z,14.98
2022-08-26T00:47:33.498Z,17.30
2022-08-26T00:50:42.329Z,17.40
2022-08-26T00:53:49.266Z,17.13
2022-08-26T00:57:16.239Z,12.57
2022-08-26T01:00:23.232Z,14.13
2022-08-26T01:03:27.115Z,14.15
2022-08-26T01:06:28.783Z,21.60
2022-08-26T01:09:31.670Z,19.05
2022-08-26T01:12:40.216Z,17.95
2022-08-26T01:15:45.741Z,15.80
2022-08-26T01:18:48.283Z,17.98
2022-08-26T01:22:00.144Z,17.30
2022-08-26T01:25:03.831Z,15.75
2022-08-26T01:28:09.437Z,25.65
2022-08-26T01:31:14.894Z,15.32
2022-08-26T01:34:30.261Z,16.60
2022-08-26T01:37:36.790Z,16.85
2022-08-26T01:40:43.845Z,20.00
2022-08-26T01:43:48.453Z,14.45
2022-08-26T01:46:52.171Z,14.15
2022-08-26T01:49:56.647Z,26.23
2022-08-26T01:53:02.295Z,20.98
2022-08-26T01:56:05.875Z,25.48
2022-08-26T01:59:12.335Z,34.20
2022-08-26T02:02:14.160Z,26.27
2022-08-26T02:05:19.361Z,27.77
2022-08-26T02:08:26.239Z,30.73
2022-08-26T02:11:28.050Z,27.02
2022-08-26T02:14:35.591Z,29.98
2022-08-26T02:17:47.245Z,35.75
2022-08-26T02:20:51.670Z,34.70
2022-08-26T02:23:56.248Z,39.42
2022-08-26T02:26:58.460Z,38.08
2022-08-26T02:30:07.983Z,33.83
2022-08-26T02:33:09.696Z,32.27
2022-08-26T02:36:13.346Z,34.33
2022-08-26T02:39:21.994Z,38.53
2022-08-26T02:42:24.023Z,35.83
2022-08-26T02:45:28.479Z,34.58
2022-08-26T02:48:30.740Z,39.85
2022-08-26T02:51:32.631Z,57.63
2022-08-26T02:54:35.070Z,47.08
2022-08-26T02:57:37.754Z,52.25
2022-08-26T03:00:39.841Z,57.53
2022-08-26T03:03:55.219Z,58.45
2022-08-26T03:06:56.945Z,63.03
2022-08-26T03:09:59.276Z,58.13
2022-08-26T03:13:00.980Z,63.28
2022-08-26T03:16:07.629Z,68.82
2022-08-26T03:19:10.160Z,64.75
2022-08-26T03:22:12.078Z,64.00
2022-08-26T03:25:17.005Z,62.10
2022-08-26T03:28:19.699Z,70.65
2022-08-26T03:31:21.542Z,70.75
2022-08-26T03:34:26.310Z,68.53
2022-08-26T03:37:28.007Z,65.75
2022-08-26T03:40:31.162Z,70.72
2022-08-26T03:43:32.816Z,73.05
2022-08-26T03:46:35.203Z,69.43
2022-08-26T03:49:36.966Z,67.47
2022-08-26T03:52:43.062Z,72.53
2022-08-26T03:55:45.828Z,66.57
2022-08-26T03:58:48.010Z,69.60
2022-08-26T04:01:52.617Z,80.43
2022-08-26T04:04:54.255Z,77.50
2022-08-26T04:07:55.893Z,83.53
2022-08-26T04:10:58.008Z,92.35
2022-08-26T04:14:01.046Z,82.15
2022-08-26T04:17:05.093Z,80.57
2022-08-26T04:20:08.513Z,79.20
2022-08-26T04:23:11.389Z,81.47
2022-08-26T04:26:12.967Z,78.75
2022-08-26T04:29:20.847Z,63.83
2022-08-26T04:32:22.667Z,80.95
2022-08-26T04:35:26.102Z,75.45
2022-08-26T04:38:28.047Z,79.40
2022-08-26T04:41:32.101Z,82.07
2022-08-26T04:44:36.107Z,74.63
2022-08-26T04:47:37.785Z,76.78
2022-08-26T04:50:39.659Z,75.93
2022-08-26T04:53:45.128Z,74.70
2022-08-26T04:56:49.369Z,64.15
2022-08-26T04:59:50.954Z,80.07
2022-08-26T05:02:53.068Z,76.15
2022-08-26T05:05:54.684Z,62.28
2022-08-26T05:08:57.007Z,72.22
2022-08-26T05:12:00.084Z,62.92
2022-08-26T05:15:01.710Z,62.63
2022-08-26T05:18:04.898Z,61.40
2022-08-26T05:21:07.232Z,57.83
2022-08-26T05:24:11.692Z,67.68
2022-08-26T05:27:14.307Z,61.58
2022-08-26T05:30:16.348Z,58.13
2022-08-26T05:33:19.047Z,58.42
2022-08-26T05:36:23.174Z,57.58
2022-08-26T05:39:28.580Z,61.53
2022-08-26T05:42:30.321Z,52.65
2022-08-26T05:45:33.518Z,59.70
2022-08-26T05:48:35.131Z,57.67
2022-08-26T05:51:37.033Z,60.28
2022-08-26T05:54:39.635Z,52.33
2022-08-26T05:57:42.830Z,54.53
2022-08-26T06:00:45.179Z,53.90
2022-08-26T06:03:51.560Z,57.60
2022-08-26T06:06:53.146Z,62.55
2022-08-26T06:10:15.167Z,54.45
2022-08-26T06:13:18.265Z,52.13
2022-08-26T06:16:22.901Z,51.58
2022-08-26T06:19:25.679Z,53.22
2022-08-26T06:22:53.303Z,50.50
2022-08-26T06:25:55.254Z,59.90
2022-08-26T06:28:59.234Z,51.85
2022-08-26T06:32:02.593Z,55.58
2022-08-26T06:35:04.601Z,50.25
2022-08-26T06:38:08.092Z,49.70
2022-08-26T06:41:10.601Z,44.92
2022-08-26T06:44:13.555Z,41.35
2022-08-26T06:47:15.218Z,43.00
2022-08-26T06:50:16.905Z,43.65
2022-08-26T06:53:18.466Z,51.03
2022-08-26T06:56:26.430Z,39.35
2022-08-26T06:59:28.251Z,41.05
2022-08-26T07:02:29.844Z,45.80
2022-08-26T07:05:31.855Z,48.25
2022-08-26T07:08:33.493Z,40.45
2022-08-26T07:11:38.177Z,38.15
2022-08-26T07:14:39.913Z,49.38
2022-08-26T07:17:45.416Z,40.00
2022-08-26T07:20:46.998Z,38.95
2022-08-26T07:23:48.961Z,38.10
2022-08-26T07:26:50.669Z,41.28
2022-08-26T07:29:56.821Z,39.55
2022-08-26T07:32:59.215Z,52.08
2022-08-26T07:36:01.038Z,45.42
2022-08-26T07:39:06.671Z,47.75
2022-08-26T07:42:09.398Z,43.88
2022-08-26T07:45:11.544Z,49.55
2022-08-26T07:48:13.310Z,50.92
2022-08-26T07:51:21.008Z,52.55
2022-08-26T07:54:26.918Z,45.20
2022-08-26T07:57:29.137Z,50.67
2022-08-26T08:00:32.755Z,53.47
2022-08-26T08:03:34.417Z,64.15
2022-08-26T08:06:37.405Z,66.50
2022-08-26T08:09:40.707Z,67.10
2022-08-26T08:12:42.729Z,69.38
2022-08-26T08:15:44.636Z,51.65
2022-08-26T08:18:46.336Z,39.17
2022-08-26T08:21:47.960Z,40.40
2022-08-26T08:24:52.873Z,42.45
2022-08-26T08:27:54.847Z,36.55
2022-08-26T08:30:57.712Z,39.78
2022-08-26T08:33:59.417Z,32.40
2022-08-26T08:37:01.025Z,29.40
2022-08-26T08:40:07.469Z,30.08
2022-08-26T08:43:14.328Z,29.25
2022-08-26T08:46:17.222Z,36.08
2022-08-26T08:49:19.031Z,34.50
2022-08-26T08:52:37.051Z,24.20
2022-08-26T08:56:02.142Z,25.70
2022-08-26T08:59:24.040Z,30.77
2022-08-26T09:02:47.683Z,24.77
2022-08-26T09:05:52.343Z,30.05
2022-08-26T09:08:55.809Z,20.27
2022-08-26T09:11:58.659Z,20.95
2022-08-26T09:15:05.376Z,23.77
2022-08-26T09:18:24.588Z,27.02
2022-08-26T09:21:26.567Z,23.95
2022-08-26T09:24:31.224Z,22.98
2022-08-26T09:27:44.111Z,20.95
2022-08-26T09:31:01.719Z,18.70
2022-08-26T09:34:23.668Z,23.67
2022-08-26T09:41:21.711Z,16.83
2022-08-26T09:44:23.288Z,19.38
2022-08-26T09:47:39.078Z,17.15
2022-08-26T09:50:58.512Z,26.30
2022-08-26T09:54:02.897Z,19.20
2022-08-26T09:57:21.192Z,25.45
2022-08-26T10:00:41.522Z,22.27
2022-08-26T10:03:44.856Z,21.10
2022-08-26T10:07:07.265Z,17.40
2022-08-26T10:10:21.305Z,17.38
2022-08-26T10:13:32.032Z,19.73
2022-08-26T10:16:50.592Z,18.80
2022-08-26T10:20:26.579Z,16.83
2022-08-26T10:23:32.743Z,15.68
2022-08-26T10:27:07.626Z,18.58
2022-08-26T10:30:15.899Z,16.17
2022-08-26T10:33:18.497Z,17.27
2022-08-26T10:37:05.182Z,17.63
2022-08-26T10:40:08.315Z,13.95
2022-08-26T10:43:21.104Z,15.95
2022-08-26T10:46:28.419Z,20.63
2022-08-26T10:49:30.080Z,15.80
2022-08-26T10:53:10.999Z,17.63
2022-08-26T10:56:25.033Z,19.52
2022-08-26T11:00:22.939Z,14.52
2022-08-26T11:03:43.746Z,13.48
2022-08-26T11:06:46.044Z,19.65
2022-08-26T11:09:49.069Z,14.55
2022-08-26T11:13:06.831Z,19.60
2022-08-26T11:16:08.740Z,19.08
2022-08-26T11:19:50.570Z,13.63
2022-08-26T11:22:55.081Z,26.17
2022-08-26T11:25:57.047Z,17.88
2022-08-26T11:28:58.918Z,19.13
2022-08-26T11:32:04.764Z,17.95
2022-08-26T11:35:13.284Z,12.77
2022-08-26T11:38:23.696Z,14.65
2022-08-26T11:41:29.689Z,26.42
2022-08-26T11:44:40.830Z,21.13
2022-08-26T11:47:42.504Z,17.27
2022-08-26T11:50:58.833Z,18.73
2022-08-26T11:54:21.467Z,13.88
2022-08-26T11:57:44.854Z,17.00
2022-08-26T12:00:51.793Z,17.08
2022-08-26T12:03:58.406Z,18.35
2022-08-26T12:07:02.398Z,16.13
2022-08-26T12:10:06.794Z,20.98
2022-08-26T12:13:17.627Z,13.43
2022-08-26T12:16:24.548Z,15.40
2022-08-26T12:19:33.392Z,18.35
2022-08-26T12:22:42.515Z,17.33
2022-08-26T12:25:52.050Z,22.90
2022-08-26T12:29:19.906Z,12.73
2022-08-26T12:32:24.881Z,18.80
2022-08-26T12:35:28.626Z,17.30
2022-08-26T12:38:35.079Z,13.52
2022-08-26T12:41:43.721Z,18.30
2022-08-26T12:44:53.343Z,16.27
2022-08-26T12:48:00.013Z,14.70
2022-08-26T12:51:03.212Z,12.48
2022-08-26T12:54:12.676Z,15.07
2022-08-26T12:57:14.476Z,12.35
2022-08-26T13:00:37.860Z,16.42
2022-08-26T13:03:44.769Z,21.33
2022-08-26T13:06:46.468Z,11.93
2022-08-26T13:09:48.797Z,15.90
2022-08-26T13:12:50.598Z,11.13
2022-08-26T13:15:52.444Z,13.32
2022-08-26T13:18:57.707Z,11.85
2022-08-26T13:22:00.341Z,13.52
2022-08-26T13:25:01.993Z,13.00
2022-08-26T13:28:03.649Z,12.27
2022-08-26T13:31:05.663Z,16.17
2022-08-26T13:34:09.700Z,12.73
2022-08-26T13:37:11.439Z,14.98
2022-08-26T13:40:13.099Z,14.90
2022-08-26T13:43:15.181Z,15.68
2022-08-26T13:46:16.893Z,16.60
2022-08-26T13:49:19.815Z,12.05
2022-08-26T13:52:29.142Z,11.02
2022-08-26T13:55:32.660Z,13.07
2022-08-26T13:58:34.273Z,11.45
2022-08-26T14:01:36.335Z,11.63
2022-08-26T14:04:37.899Z,12.73
2022-08-26T14:07:40.360Z,11.95
2022-08-26T14:10:44.343Z,15.63
2022-08-26T14:13:45.995Z,12.43
2022-08-26T14:16:59.154Z,14.02
2022-08-26T14:20:02.426Z,8.00
2022-08-26T14:23:13.741Z,12.55
2022-08-26T14:26:28.514Z,8.20
2022-08-26T14:29:31.139Z,13.20
2022-08-26T14:32:33.242Z,14.80
2022-08-26T14:35:34.827Z,15.40
2022-08-26T14:38:36.409Z,7.82
2022-08-26T14:41:54.417Z,12.38
2022-08-26T14:45:00.082Z,12.63
2022-08-26T14:48:01.862Z,17.35
2022-08-26T14:51:05.203Z,13.30
2022-08-26T14:54:14.823Z,9.40
2022-08-26T14:57:17.290Z,12.00
2022-08-26T15:00:19.403Z,17.05
2022-08-26T15:03:21.762Z,15.45
2022-08-26T15:06:23.591Z,10.30
2022-08-26T15:09:26.675Z,16.02
2022-08-26T15:12:28.528Z,12.30
2022-08-26T15:15:30.291Z,11.95
2022-08-26T15:18:31.915Z,12.32
2022-08-26T15:21:34.836Z,16.30
2022-08-26T15:24:36.484Z,17.52
2022-08-26T15:27:38.928Z,16.52
2022-08-26T15:30:40.583Z,10.63
2022-08-26T15:33:42.636Z,14.85
2022-08-26T15:36:46.141Z,16.00
2022-08-26T15:39:47.899Z,14.95
2022-08-26T15:42:54.338Z,14.40
2022-08-26T15:45:59.666Z,13.95
2022-08-26T15:49:01.892Z,14.98
2022-08-26T15:52:05.469Z,10.15
2022-08-26T15:55:07.861Z,8.52
2022-08-26T15:58:10.378Z,12.07
2022-08-26T16:01:12.091Z,9.75
2022-08-26T16:04:14.066Z,11.98
2022-08-26T16:07:15.669Z,11.02
2022-08-26T16:10:18.535Z,15.05
2022-08-26T16:13:20.686Z,8.55
2022-08-26T16:16:22.992Z,9.50
2022-08-26T16:19:24.772Z,8.45
2022-08-26T16:22:27.098Z,9.65
2022-08-26T16:25:30.817Z,10.32
2022-08-26T16:28:32.448Z,11.20
2022-08-26T16:31:37.120Z,13.25
2022-08-26T16:34:38.944Z,11.18
2022-08-26T16:37:57.813Z,11.05
2022-08-26T16:41:00.999Z,9.65
2022-08-26T16:44:03.364Z,9.73
2022-08-26T16:47:05.055Z,7.60
2022-08-26T16:50:09.398Z,13.15
2022-08-26T16:56:21.117Z,8.63
2022-08-26T16:59:23.376Z,7.90
2022-08-26T17:02:25.156Z,8.82
2022-08-26T17:05:28.066Z,12.80
2022-08-26T17:08:30.281Z,8.75
2022-08-26T17:11:31.865Z,7.15
2022-08-26T17:14:33.510Z,11.63
2022-08-26T17:17:35.619Z,10.35
2022-08-26T17:20:37.231Z,12.30
2022-08-26T17:23:40.866Z,10.20
2022-08-26T17:26:44.308Z,8.20
2022-08-26T17:29:50.048Z,15.10
2022-08-26T17:32:52.236Z,8.50
2022-08-26T17:35:54.762Z,12.98
2022-08-26T17:38:57.574Z,8.07
2022-08-26T17:41:59.172Z,11.07
2022-08-26T17:45:00.867Z,13.88
2022-08-26T17:48:02.747Z,7.82
2022-08-26T17:51:13.507Z,14.88
2022-08-26T17:54:15.741Z,17.15
2022-08-26T17:57:17.318Z,14.48
2022-08-26T18:00:26.335Z,15.32
2022-08-26T18:03:28.174Z,12.75
2022-08-26T18:06:30.698Z,11.90
2022-08-26T18:09:33.527Z,11.90
2022-08-26T18:12:35.982Z,17.20
2022-08-26T18:15:46.267Z,8.82
2022-08-26T18:18:48.740Z,11.02
2022-08-26T18:21:50.306Z,9.75
2022-08-26T18:24:59.009Z,10.02
2022-08-26T18:28:01.099Z,13.40
2022-08-26T18:31:03.344Z,12.27
2022-08-26T18:34:05.066Z,10.20
2022-08-26T18:40:16.305Z,9.38
2022-08-26T18:43:18.062Z,8.52
2022-08-26T18:46:21.372Z,6.55
2022-08-26T18:49:23.372Z,12.45
2022-08-26T18:52:24.992Z,10.77
2022-08-26T18:55:26.699Z,10.07
2022-08-26T18:58:28.273Z,8.35
2022-08-26T19:01:30.976Z,15.95
2022-08-26T19:04:33.023Z,9.20
2022-08-26T19:07:37.751Z,9.45
2022-08-26T19:10:41.465Z,9.88
2022-08-26T19:13:44.087Z,13.10
2022-08-26T19:16:48.210Z,13.85
2022-08-26T19:19:49.900Z,9.98
2022-08-26T19:22:51.578Z,11.70
2022-08-26T19:25:53.641Z,9.73
2022-08-26T19:28:55.971Z,5.35
2022-08-26T19:31:57.879Z,13.38
2022-08-26T19:34:59.460Z,8.93
2022-08-26T19:38:01.901Z,9.02
2022-08-26T19:41:03.527Z,12.27
2022-08-26T19:44:11.482Z,7.88
2022-08-26T19:47:17.879Z,6.35
2022-08-26T19:50:19.601Z,15.40
2022-08-26T19:53:21.198Z,7.45
2022-08-26T19:56:23.205Z,6.60
2022-08-26T19:59:24.802Z,7.88
2022-08-26T20:02:27.219Z,10.95
2022-08-26T20:05:28.835Z,6.40
2022-08-26T20:08:30.770Z,8.55
2022-08-26T20:11:32.466Z,14.68
2022-08-26T20:14:35.518Z,8.85
2022-08-26T20:17:38.220Z,10.88
2022-08-26T20:20:58.469Z,14.10
2022-08-26T20:24:03.811Z,10.43
2022-08-26T20:27:07.983Z,10.20
2022-08-26T20:30:10.876Z,11.57
2022-08-26T20:33:12.851Z,8.68
2022-08-26T20:36:15.572Z,6.93
2022-08-26T20:39:18.653Z,8.43
2022-08-26T20:42:20.705Z,10.07
2022-08-26T20:45:22.360Z,8.68
2022-08-26T20:48:24.064Z,12.27
2022-08-26T20:51:26.367Z,10.05
2022-08-26T20:54:28.593Z,9.48
2022-08-26T20:57:30.258Z,20.83
2022-08-26T21:00:32.035Z,13.25
2022-08-26T21:03:33.893Z,10.07
2022-08-26T21:06:36.147Z,7.93
2022-08-26T21:09:37.920Z,9.80
2022-08-26T21:12:40.154Z,6.40
2022-08-26T21:15:41.780Z,12.75
2022-08-26T21:18:43.634Z,11.77
2022-08-26T21:21:46.988Z,9.75
2022-08-26T21:24:48.664Z,11.55
2022-08-26T21:27:50.278Z,13.15
2022-08-26T21:30:51.835Z,13.65
2022-08-26T21:33:53.615Z,9.68
2022-08-26T21:36:55.359Z,9.70
2022-08-26T21:39:58.658Z,11.88
2022-08-26T21:43:00.349Z,12.65
2022-08-26T21:46:11.278Z,11.27
2022-08-26T21:49:15.798Z,8.27
2022-08-26T21:52:17.896Z,11.65
2022-08-26T21:55:19.471Z,12.82
2022-08-26T21:58:21.075Z,13.15
2022-08-26T22:01:25.563Z,12.38
2022-08-26T22:04:27.650Z,16.73
2022-08-26T22:07:29.321Z,14.18
2022-08-26T22:10:30.910Z,13.48
2022-08-26T22:13:37.793Z,13.48
2022-08-26T22:16:39.428Z,12.48
2022-08-26T22:19:46.147Z,15.68
2022-08-26T22:22:48.120Z,14.23
2022-08-26T22:25:50.857Z,13.18
2022-08-26T22:28:55.617Z,10.65
2022-08-26T22:32:01.387Z,12.75
2022-08-26T22:35:03.340Z,10.13
2022-08-26T22:38:25.609Z,12.20
2022-08-26T22:41:27.283Z,11.90
2022-08-26T22:44:28.971Z,12.43
2022-08-26T22:47:30.607Z,13.07
2022-08-26T22:50:32.511Z,10.07
2022-08-26T22:53:35.924Z,14.20
2022-08-26T22:56:45.146Z,22.08
2022-08-26T22:59:46.885Z,18.00
2022-08-26T23:02:48.574Z,16.88
2022-08-26T23:05:50.779Z,21.33
2022-08-26T23:08:53.672Z,16.42
2022-08-26T23:11:56.457Z,21.63
2022-08-26T23:14:58.240Z,14.70
2022-08-26T23:18:00.074Z,18.05
2022-08-26T23:21:02.888Z,17.05
2022-08-26T23:24:06.313Z,16.20
2022-08-26T23:27:07.991Z,14.95
2022-08-26T23:30:14.186Z,15.30
2022-08-26T23:33:15.824Z,14.35
2022-08-26T23:36:18.368Z,14.38
2022-08-26T23:39:25.503Z,11.25
2022-08-26T23:42:27.084Z,22.67
2022-08-26T23:45:32.337Z,17.95
2022-08-26T23:48:33.967Z,14.48
2022-08-26T23:51:54.371Z,17.73
2022-08-26T23:54:56.567Z,16.27
2022-08-26T23:57:58.565Z,15.07
